Terminal Aerodrome Forecast
Issued by NWS

Home | Current Version | Previous Version | Graphics & Text | Print | Product List | Glossary On
Versions: 1 2 3 4 5 6 7 8 9 10 11 12 13 14
531
FTUS43 KBIS 020527
TAFDIK
TAF
KDIK 020527Z 0206/0306 25006KT P6SM SCT250
     FM020800 27009KT P6SM BKN070
     FM021600 31011G20KT P6SM VCTS BKN060CB
     FM022100 01012KT P6SM SCT060
     FM030300 07004KT P6SM SKC=

USA.gov is the U.S. government's official web portal to all federal, state and local government web resources and services.